Time;durP1;ratioP1;P1;durP2;ratioP2;P2;SDS_P1;SDS_P2;PMS_P1;PMS_P2;Temp;Humidity;BMP_temperature;BMP_pressure;BME280_temperature;BME280_humidity;BME280_pressure;Samples;Min_cycle;Max_cycle;Signal;HPM_P1;HPM_P2
2022/09/15 17:51:41;;;;;;;1.23;0.88;;;14.80;94.50;;;;;;5081548;28;21003;-62
2022/09/15 17:54:09;;;;;;;1.75;1.27;;;14.30;95.30;;;;;;5062961;28;20032;-64
2022/09/15 17:56:35;;;;;;;2.78;0.70;;;14.20;96.00;;;;;;5065770;28;20035;-63
2022/09/15 17:59:00;;;;;;;2.97;0.52;;;14.20;96.70;;;;;;5066821;28;20103;-61
2022/09/15 18:01:26;;;;;;;1.63;0.80;;;14.20;97.10;;;;;;5066656;28;20056;-61
2022/09/15 18:03:51;;;;;;;2.47;0.75;;;14.20;96.80;;;;;;5064689;28;20111;-62
2022/09/15 18:06:17;;;;;;;1.40;0.70;;;14.30;97.00;;;;;;5066467;28;20497;-62
2022/09/15 18:08:43;;;;;;;3.03;0.88;;;14.30;96.80;;;;;;5067283;28;20074;-62
2022/09/15 18:11:12;;;;;;;4.40;1.25;;;14.40;97.00;;;;;;5066466;28;20040;-62
2022/09/15 18:13:38;;;;;;;2.85;0.80;;;14.40;97.00;;;;;;5098672;28;20460;-62
2022/09/15 18:16:11;;;;;;;4.28;0.98;;;14.50;97.00;;;;;;5065268;28;20107;-63
2022/09/15 18:18:38;;;;;;;3.88;0.80;;;14.50;96.90;;;;;;5066511;28;20366;-63
2022/09/15 18:21:08;;;;;;;2.70;0.80;;;14.60;96.70;;;;;;5066842;28;20024;-62
2022/09/15 18:23:36;;;;;;;4.72;0.90;;;14.70;96.60;;;;;;5066826;28;20424;-61
2022/09/15 18:26:01;;;;;;;1.73;0.80;;;14.70;96.50;;;;;;5047930;28;20156;-62
2022/09/15 18:28:27;;;;;;;3.30;0.90;;;14.70;96.50;;;;;;5046729;28;20097;-62
2022/09/15 18:30:54;;;;;;;2.20;0.90;;;14.70;96.50;;;;;;5049248;28;20115;-62
2022/09/15 18:33:22;;;;;;;0.82;0.60;;;14.70;96.40;;;;;;5066805;28;20660;-62
2022/09/15 18:35:50;;;;;;;2.55;0.77;;;14.60;96.40;;;;;;5065967;28;20031;-62
2022/09/15 18:38:17;;;;;;;1.50;0.70;;;14.60;96.50;;;;;;5065722;28;20104;-60
2022/09/15 18:40:45;;;;;;;1.13;0.50;;;14.60;96.60;;;;;;5064482;28;20052;-60
2022/09/15 18:43:11;;;;;;;1.40;0.60;;;14.50;96.70;;;;;;5065689;28;20462;-60
2022/09/15 18:45:36;;;;;;;2.55;0.90;;;14.40;96.70;;;;;;5063956;28;20028;-61
2022/09/15 18:48:03;;;;;;;3.10;0.82;;;14.30;96.90;;;;;;5065337;28;20039;-60
2022/09/15 18:50:29;;;;;;;2.05;0.80;;;14.20;96.90;;;;;;5065966;28;20037;-60
2022/09/15 18:52:54;;;;;;;2.03;0.70;;;14.10;97.00;;;;;;5065474;28;20031;-61
2022/09/15 18:55:21;;;;;;;2.28;0.60;;;14.10;97.10;;;;;;5063723;28;20032;-61
2022/09/15 18:57:47;;;;;;;4.55;1.00;;;14.00;97.10;;;;;;5064717;28;20115;-61
2022/09/15 19:00:16;;;;;;;0.82;0.60;;;14.00;97.10;;;;;;5063961;28;20025;-61
2022/09/15 19:02:42;;;;;;;3.75;0.70;;;14.00;97.10;;;;;;5055016;28;20075;-62
2022/09/15 19:05:10;;;;;;;1.80;0.68;;;14.00;97.20;;;;;;5050181;28;20117;-61
2022/09/15 19:07:37;;;;;;;2.50;0.70;;;13.90;97.20;;;;;;5052950;28;20182;-61
2022/09/15 19:10:03;;;;;;;1.33;0.73;;;13.90;97.30;;;;;;5051421;28;20037;-61
2022/09/15 19:12:28;;;;;;;3.58;1.10;;;13.90;97.30;;;;;;5052168;28;20543;-61
2022/09/15 19:14:54;;;;;;;2.22;1.30;;;13.90;97.30;;;;;;5050539;28;20056;-61
2022/09/15 19:17:20;;;;;;;4.68;0.63;;;13.80;97.30;;;;;;5052107;28;20021;-61
2022/09/15 19:19:45;;;;;;;0.82;0.52;;;13.80;97.30;;;;;;5051923;28;20040;-62
2022/09/15 19:22:11;;;;;;;1.42;0.65;;;13.80;97.20;;;;;;5050707;28;20021;-61
2022/09/15 19:24:37;;;;;;;0.98;0.65;;;13.90;97.10;;;;;;5045241;28;20036;-61
2022/09/15 19:27:05;;;;;;;1.95;0.60;;;13.90;97.00;;;;;;5031767;28;20486;-61
2022/09/15 19:29:33;;;;;;;1.30;0.70;;;13.90;96.80;;;;;;5031908;28;20036;-61
2022/09/15 19:32:10;;;;;;;0.95;0.60;;;14.00;96.70;;;;;;5032299;28;20501;-61
2022/09/15 19:34:40;;;;;;;4.25;0.98;;;14.00;96.50;;;;;;5047528;28;20076;-61
2022/09/15 19:37:07;;;;;;;2.10;0.68;;;14.10;96.40;;;;;;5051897;28;20056;-62
2022/09/15 19:39:32;;;;;;;4.43;0.80;;;14.10;96.30;;;;;;5051252;28;20059;-62
2022/09/15 19:41:58;;;;;;;3.85;0.60;;;14.10;96.20;;;;;;5066125;28;20037;-63
2022/09/15 19:44:24;;;;;;;3.83;0.70;;;14.10;96.00;;;;;;5066180;28;20024;-62
2022/09/15 19:46:49;;;;;;;2.17;0.70;;;14.20;95.90;;;;;;5050301;28;20385;-62
2022/09/15 19:49:15;;;;;;;2.22;0.52;;;14.10;95.80;;;;;;5050340;28;20075;-63
2022/09/15 19:51:41;;;;;;;2.13;0.63;;;14.20;95.60;;;;;;5051256;28;20025;-63
2022/09/15 19:54:07;;;;;;;1.33;0.70;;;14.20;95.50;;;;;;5050543;28;20021;-64
2022/09/15 19:56:33;;;;;;;1.90;0.50;;;14.10;95.40;;;;;;5049498;28;20029;-62
2022/09/15 19:58:59;;;;;;;1.20;0.68;;;14.10;95.30;;;;;;5046238;28;20048;-63
2022/09/15 20:01:27;;;;;;;2.53;0.70;;;14.10;95.10;;;;;;5052353;28;20453;-63
2022/09/15 20:03:54;;;;;;;2.38;0.82;;;14.10;94.90;;;;;;5052185;28;20025;-67
2022/09/15 20:06:21;;;;;;;2.38;0.70;;;14.10;94.80;;;;;;5052927;28;20017;-64
2022/09/15 20:08:50;;;;;;;1.55;0.80;;;14.20;94.80;;;;;;5051110;28;20448;-63
2022/09/15 20:11:16;;;;;;;1.48;0.52;;;14.20;94.50;;;;;;5051718;28;20548;-63
2022/09/15 20:13:42;;;;;;;4.43;0.68;;;14.20;94.50;;;;;;5052145;28;20078;-62
2022/09/15 20:16:16;;;;;;;0.98;0.50;;;14.20;94.50;;;;;;5052527;28;20028;-64
2022/09/15 20:18:45;;;;;;;2.13;0.63;;;14.20;94.50;;;;;;5052907;28;20044;-65
2022/09/15 20:21:17;;;;;;;2.45;0.52;;;14.20;94.60;;;;;;5053135;28;20085;-64
2022/09/15 20:23:44;;;;;;;1.15;0.50;;;14.20;94.50;;;;;;5051794;28;20033;-66
2022/09/15 20:26:12;;;;;;;2.28;1.30;;;14.20;94.60;;;;;;5052648;28;20017;-63
2022/09/15 20:28:38;;;;;;;3.03;0.70;;;14.20;94.60;;;;;;5052710;28;20393;-62
2022/09/15 20:31:08;;;;;;;0.57;0.40;;;14.10;94.70;;;;;;5051253;28;20033;-62
2022/09/15 20:33:35;;;;;;;2.13;0.60;;;14.10;94.80;;;;;;5050302;28;20024;-62
2022/09/15 20:36:06;;;;;;;2.78;0.70;;;14.00;94.80;;;;;;5052024;28;20497;-62
2022/09/15 20:38:33;;;;;;;2.45;0.50;;;14.00;94.80;;;;;;5051439;28;20094;-62
2022/09/15 20:40:59;;;;;;;2.58;0.93;;;13.90;94.90;;;;;;5051597;28;20053;-62
2022/09/15 20:43:25;;;;;;;1.13;0.60;;;13.80;95.00;;;;;;5050939;28;20504;-62
2022/09/15 20:45:55;;;;;;;4.57;0.63;;;13.80;95.20;;;;;;5051819;28;20104;-61
2022/09/15 20:48:21;;;;;;;1.35;0.50;;;13.80;95.40;;;;;;5052021;28;20386;-63
2022/09/15 20:50:47;;;;;;;1.05;0.55;;;13.70;95.50;;;;;;5050328;28;20052;-62
2022/09/15 20:53:12;;;;;;;2.75;0.70;;;13.70;95.50;;;;;;5050081;28;20231;-62
2022/09/15 20:55:38;;;;;;;1.17;0.60;;;13.70;95.60;;;;;;5052336;28;20043;-61
2022/09/15 20:58:04;;;;;;;1.58;0.70;;;13.70;95.60;;;;;;5050355;28;20079;-61
2022/09/15 21:00:29;;;;;;;2.75;0.50;;;13.60;95.70;;;;;;5052514;28;20028;-63
2022/09/15 21:02:55;;;;;;;1.30;0.55;;;13.60;95.70;;;;;;5052221;28;20457;-63
2022/09/15 21:05:21;;;;;;;2.60;0.70;;;13.60;95.70;;;;;;5051230;28;20033;-62
2022/09/15 21:07:47;;;;;;;2.53;0.65;;;13.60;95.70;;;;;;5052039;28;20023;-63
2022/09/15 21:10:12;;;;;;;2.47;1.00;;;13.60;95.70;;;;;;5051966;28;20393;-63
2022/09/15 21:12:38;;;;;;;1.77;0.50;;;13.70;95.70;;;;;;5051587;28;20013;-63
2022/09/15 21:15:04;;;;;;;5.18;0.95;;;13.70;95.70;;;;;;5051946;28;20056;-63
2022/09/15 21:17:31;;;;;;;3.22;0.60;;;13.70;95.70;;;;;;5050640;28;20112;-63
2022/09/15 21:19:56;;;;;;;1.35;0.68;;;13.70;95.70;;;;;;5050051;28;20028;-63
2022/09/15 21:22:22;;;;;;;1.50;0.82;;;13.70;95.80;;;;;;5051711;28;20405;-63
2022/09/15 21:24:48;;;;;;;3.88;1.13;;;13.70;95.80;;;;;;5051696;28;20385;-63
2022/09/15 21:27:25;;;;;;;1.23;0.70;;;13.70;95.90;;;;;;5050990;28;20354;-63
2022/09/15 21:29:51;;;;;;;4.32;1.00;;;13.70;96.00;;;;;;5051648;28;20110;-63
2022/09/15 21:32:17;;;;;;;4.70;0.95;;;13.70;96.10;;;;;;5051621;28;20060;-63
2022/09/15 21:34:42;;;;;;;2.50;0.68;;;13.70;96.20;;;;;;5050953;28;20024;-63
2022/09/15 21:37:09;;;;;;;3.08;0.80;;;13.70;96.20;;;;;;5051290;28;20459;-64
2022/09/15 21:39:35;;;;;;;2.22;0.90;;;13.60;96.30;;;;;;5051540;28;20017;-62
2022/09/15 21:42:01;;;;;;;3.00;0.90;;;13.60;96.50;;;;;;5047943;28;20458;-63
2022/09/15 21:44:26;;;;;;;1.58;0.82;;;13.60;96.60;;;;;;5051374;28;20104;-62
2022/09/15 21:46:52;;;;;;;1.33;0.70;;;13.60;96.50;;;;;;5050975;28;20051;-62
2022/09/15 21:49:17;;;;;;;2.20;0.60;;;13.60;96.50;;;;;;5050936;28;20092;-63
2022/09/15 21:51:43;;;;;;;4.50;0.80;;;13.60;96.50;;;;;;5049917;28;20036;-63
2022/09/15 21:54:09;;;;;;;2.85;0.75;;;13.60;96.40;;;;;;5049652;28;20025;-63
2022/09/15 21:56:35;;;;;;;4.18;0.90;;;13.70;96.60;;;;;;5048945;28;20037;-63
2022/09/15 21:59:02;;;;;;;3.38;0.80;;;13.70;96.70;;;;;;5050521;28;20025;-63
2022/09/15 22:01:31;;;;;;;3.22;0.90;;;13.70;96.80;;;;;;5050009;28;20103;-63
2022/09/15 22:04:00;;;;;;;3.40;0.80;;;13.60;96.90;;;;;;5049562;28;20028;-63
2022/09/15 22:06:30;;;;;;;3.83;0.90;;;13.60;96.90;;;;;;5050815;28;20036;-63
2022/09/15 22:08:57;;;;;;;2.22;0.70;;;13.50;97.00;;;;;;5049552;28;20405;-63
2022/09/15 22:11:23;;;;;;;5.78;0.80;;;13.40;97.10;;;;;;5050339;28;20531;-63
2022/09/15 22:13:49;;;;;;;2.28;0.80;;;13.40;97.40;;;;;;5050395;28;20017;-64
2022/09/15 22:16:17;;;;;;;2.17;0.80;;;13.30;97.60;;;;;;5050110;28;20025;-64
2022/09/15 22:18:43;;;;;;;4.78;0.90;;;13.20;97.80;;;;;;5050271;28;20036;-63
2022/09/15 22:21:18;;;;;;;3.83;0.68;;;13.10;97.90;;;;;;5050505;28;20029;-63
2022/09/15 22:23:45;;;;;;;1.42;0.50;;;13.00;98.10;;;;;;5050281;28;20025;-63
2022/09/15 22:26:13;;;;;;;1.05;0.90;;;13.00;98.30;;;;;;5050223;28;20374;-63
2022/09/15 22:28:39;;;;;;;0.98;0.70;;;12.90;98.60;;;;;;5050702;28;20100;-63
2022/09/15 22:31:06;;;;;;;1.83;0.80;;;12.90;98.50;;;;;;5049719;28;20163;-62
2022/09/15 22:33:32;;;;;;;3.45;0.93;;;12.80;98.60;;;;;;5050643;28;20017;-63
2022/09/15 22:35:58;;;;;;;2.67;0.80;;;12.80;98.60;;;;;;5050460;28;20116;-63
2022/09/15 22:38:26;;;;;;;2.00;0.90;;;12.70;98.70;;;;;;5053697;28;20024;-63
2022/09/15 22:40:51;;;;;;;2.70;0.88;;;12.70;98.90;;;;;;5054583;28;20033;-63
2022/09/15 22:43:17;;;;;;;1.33;0.82;;;12.60;99.00;;;;;;5053546;28;20100;-63
2022/09/15 22:45:43;;;;;;;1.92;0.90;;;12.60;99.10;;;;;;5054484;28;20029;-63
2022/09/15 22:48:09;;;;;;;2.67;1.02;;;12.60;99.20;;;;;;5054158;28;20060;-63
2022/09/15 22:50:35;;;;;;;2.05;1.00;;;12.50;99.20;;;;;;5053400;28;20048;-63
2022/09/15 22:53:00;;;;;;;1.67;0.80;;;12.50;99.40;;;;;;5054071;28;20051;-63
2022/09/15 22:55:26;;;;;;;1.95;1.30;;;12.40;99.50;;;;;;5054453;28;20469;-63
2022/09/15 22:57:53;;;;;;;2.42;0.90;;;12.40;99.60;;;;;;5053257;28;20457;-64
2022/09/15 23:00:19;;;;;;;2.35;0.95;;;12.40;99.80;;;;;;5053977;28;20025;-63
2022/09/15 23:02:45;;;;;;;1.70;0.98;;;12.40;99.80;;;;;;5053982;28;20028;-64
2022/09/15 23:05:11;;;;;;;1.85;1.02;;;12.50;99.90;;;;;;5053251;28;20100;-64
2022/09/15 23:07:37;;;;;;;2.80;1.00;;;12.50;99.90;;;;;;5053545;28;20222;-64
2022/09/15 23:10:03;;;;;;;4.88;1.40;;;12.60;99.90;;;;;;5053930;28;20033;-63
2022/09/15 23:12:29;;;;;;;2.95;1.13;;;12.70;99.90;;;;;;5053539;28;20343;-63
2022/09/15 23:14:55;;;;;;;3.75;1.23;;;12.80;99.90;;;;;;5052633;28;20025;-64
2022/09/15 23:17:21;;;;;;;4.95;1.30;;;12.80;99.80;;;;;;5053502;28;20029;-62
2022/09/15 23:19:47;;;;;;;2.63;1.20;;;12.70;99.80;;;;;;5052868;28;20021;-62
2022/09/15 23:22:13;;;;;;;1.77;1.00;;;12.70;99.90;;;;;;5053658;28;20037;-62
2022/09/15 23:24:38;;;;;;;4.97;1.00;;;12.60;99.90;;;;;;5053573;28;20025;-62
2022/09/15 23:27:04;;;;;;;2.58;0.93;;;12.60;99.90;;;;;;5052852;28;20075;-62
2022/09/15 23:29:30;;;;;;;3.42;0.93;;;12.50;99.90;;;;;;5053340;28;20048;-62
2022/09/15 23:31:55;;;;;;;3.35;1.00;;;12.50;99.90;;;;;;5052228;28;20106;-63
2022/09/15 23:34:21;;;;;;;2.50;1.00;;;12.40;99.90;;;;;;5052808;28;20028;-63
2022/09/15 23:36:46;;;;;;;5.00;1.10;;;12.40;99.90;;;;;;5053529;28;20040;-63
2022/09/15 23:39:12;;;;;;;3.08;1.00;;;12.30;99.90;;;;;;5053045;28;20025;-64
2022/09/15 23:41:38;;;;;;;1.77;0.93;;;12.30;99.90;;;;;;5050956;28;20029;-63
2022/09/15 23:44:04;;;;;;;2.22;0.80;;;12.30;99.90;;;;;;5052702;28;20035;-63
2022/09/15 23:46:30;;;;;;;2.00;0.90;;;12.20;99.90;;;;;;5052368;28;20417;-65
2022/09/15 23:48:56;;;;;;;2.53;0.98;;;12.30;99.90;;;;;;5053144;28;20074;-64
2022/09/15 23:51:21;;;;;;;3.60;1.00;;;12.30;99.90;;;;;;5052486;28;20061;-65
2022/09/15 23:53:47;;;;;;;2.40;0.88;;;12.40;99.90;;;;;;5052660;28;20033;-63
2022/09/15 23:56:12;;;;;;;2.38;1.08;;;12.40;99.90;;;;;;5052987;28;20035;-63
2022/09/15 23:58:38;;;;;;;4.40;1.15;;;12.40;99.90;;;;;;5051540;28;20021;-64
